Terminal Aerodrome Forecast
Issued by NWS Wilmington, OH

Current Version | Previous Version | Graphics & Text | Print | Product List | Glossary On
Versions: 1 2 3 4 5 6 7 8 9 10 11 12 13 14 15 16 17 18 19 20 21
000
FTUS41 KILN 272000 AAB
TAFCMH
TAF AMD
KCMH 272029Z 2720/2818 25010G18KT 3SM -SHRA VCTS BKN025CB
      TEMPO 2720/2721 27020G35KT 1/2SM TSRA BKN025CB
     FM272100 25012G20KT P6SM -SHRA VCTS BKN035CB
      TEMPO 2721/2722 3SM -TSRA BKN025CB
     FM280000 28012KT P6SM BKN035
     FM280300 29009KT P6SM SCT035
     FM281100 30010KT P6SM VCSH OVC012
     FM281500 31011KT P6SM -SHRA BKN025=

USA.gov is the U.S. government's official web portal to all federal, state and local government web resources and services.